sensor_id;sensor_type;location;lat;lon;timestamp;temperature;humidity
21635;DHT22;10979;48.306;9.830;2023-02-23T00:01:19;4.00;99.90
21635;DHT22;10979;48.306;9.830;2023-02-23T00:03:46;4.00;99.90
21635;DHT22;10979;48.306;9.830;2023-02-23T00:06:14;4.00;99.90
21635;DHT22;10979;48.306;9.830;2023-02-23T00:08:40;4.10;99.90
21635;DHT22;10979;48.306;9.830;2023-02-23T00:11:08;4.10;99.90
21635;DHT22;10979;48.306;9.830;2023-02-23T00:13:35;4.10;99.90
21635;DHT22;10979;48.306;9.830;2023-02-23T00:16:05;4.20;99.90
21635;DHT22;10979;48.306;9.830;2023-02-23T00:18:31;4.20;99.90
21635;DHT22;10979;48.306;9.830;2023-02-23T00:21:10;4.20;99.90
21635;DHT22;10979;48.306;9.830;2023-02-23T00:23:49;4.20;99.90
21635;DHT22;10979;48.306;9.830;2023-02-23T00:26:17;4.20;99.90
21635;DHT22;10979;48.306;9.830;2023-02-23T00:28:46;4.20;99.90
21635;DHT22;10979;48.306;9.830;2023-02-23T00:31:12;4.20;99.90
21635;DHT22;10979;48.306;9.830;2023-02-23T00:33:38;4.20;99.90
21635;DHT22;10979;48.306;9.830;2023-02-23T00:36:13;4.20;99.90
21635;DHT22;10979;48.306;9.830;2023-02-23T00:38:40;4.10;99.90
21635;DHT22;10979;48.306;9.830;2023-02-23T00:41:08;4.10;99.90
21635;DHT22;10979;48.306;9.830;2023-02-23T00:43:39;4.10;99.90
21635;DHT22;10979;48.306;9.830;2023-02-23T00:46:15;4.10;99.90
21635;DHT22;10979;48.306;9.830;2023-02-23T00:48:42;4.10;99.90
21635;DHT22;10979;48.306;9.830;2023-02-23T00:51:09;4.10;99.90
21635;DHT22;10979;48.306;9.830;2023-02-23T00:53:34;4.30;99.90
21635;DHT22;10979;48.306;9.830;2023-02-23T00:56:03;4.30;99.90
21635;DHT22;10979;48.306;9.830;2023-02-23T00:58:29;4.30;99.90
21635;DHT22;10979;48.306;9.830;2023-02-23T01:00:55;4.40;99.90
21635;DHT22;10979;48.306;9.830;2023-02-23T01:03:24;4.40;99.90
21635;DHT22;10979;48.306;9.830;2023-02-23T01:05:49;4.50;99.90
21635;DHT22;10979;48.306;9.830;2023-02-23T01:08:16;4.50;99.90
21635;DHT22;10979;48.306;9.830;2023-02-23T01:10:43;4.60;99.90
21635;DHT22;10979;48.306;9.830;2023-02-23T01:13:10;4.50;99.90
21635;DHT22;10979;48.306;9.830;2023-02-23T01:15:42;4.50;99.90
21635;DHT22;10979;48.306;9.830;2023-02-23T01:18:09;4.50;99.90
21635;DHT22;10979;48.306;9.830;2023-02-23T01:20:36;4.50;99.90
21635;DHT22;10979;48.306;9.830;2023-02-23T01:23:02;4.50;99.90
21635;DHT22;10979;48.306;9.830;2023-02-23T01:25:28;4.50;99.90
21635;DHT22;10979;48.306;9.830;2023-02-23T01:27:54;4.50;99.90
21635;DHT22;10979;48.306;9.830;2023-02-23T01:30:20;4.50;99.90
21635;DHT22;10979;48.306;9.830;2023-02-23T01:32:46;4.50;99.90
21635;DHT22;10979;48.306;9.830;2023-02-23T01:35:12;4.50;99.90
21635;DHT22;10979;48.306;9.830;2023-02-23T01:37:41;4.50;99.90
21635;DHT22;10979;48.306;9.830;2023-02-23T01:40:13;4.50;99.90
21635;DHT22;10979;48.306;9.830;2023-02-23T01:42:43;4.60;99.90
21635;DHT22;10979;48.306;9.830;2023-02-23T01:45:28;4.70;99.90
21635;DHT22;10979;48.306;9.830;2023-02-23T01:48:05;4.60;99.90
21635;DHT22;10979;48.306;9.830;2023-02-23T01:50:50;4.70;99.90
21635;DHT22;10979;48.306;9.830;2023-02-23T01:53:18;4.70;99.90
21635;DHT22;10979;48.306;9.830;2023-02-23T01:55:49;4.70;99.90
21635;DHT22;10979;48.306;9.830;2023-02-23T01:58:21;4.80;99.90
21635;DHT22;10979;48.306;9.830;2023-02-23T02:00:56;4.70;99.90
21635;DHT22;10979;48.306;9.830;2023-02-23T02:03:37;4.80;99.90
21635;DHT22;10979;48.306;9.830;2023-02-23T02:06:06;4.70;99.90
21635;DHT22;10979;48.306;9.830;2023-02-23T02:08:35;4.70;99.90
21635;DHT22;10979;48.306;9.830;2023-02-23T02:11:10;4.80;99.90
21635;DHT22;10979;48.306;9.830;2023-02-23T02:13:55;4.80;99.90
21635;DHT22;10979;48.306;9.830;2023-02-23T02:38:20;4.80;99.90
21635;DHT22;10979;48.306;9.830;2023-02-23T02:41:16;4.90;99.90
21635;DHT22;10979;48.306;9.830;2023-02-23T02:44:07;4.90;99.90
21635;DHT22;10979;48.306;9.830;2023-02-23T02:46:40;4.90;99.90
21635;DHT22;10979;48.306;9.830;2023-02-23T02:49:24;4.90;99.90
21635;DHT22;10979;48.306;9.830;2023-02-23T02:51:55;5.00;99.90
21635;DHT22;10979;48.306;9.830;2023-02-23T02:54:36;5.00;99.90
21635;DHT22;10979;48.306;9.830;2023-02-23T02:57:04;5.10;99.90
21635;DHT22;10979;48.306;9.830;2023-02-23T02:59:30;5.10;99.90
21635;DHT22;10979;48.306;9.830;2023-02-23T03:02:20;5.10;99.90
21635;DHT22;10979;48.306;9.830;2023-02-23T03:05:16;5.10;99.90
21635;DHT22;10979;48.306;9.830;2023-02-23T03:08:07;5.00;99.90
21635;DHT22;10979;48.306;9.830;2023-02-23T03:11:04;5.00;99.90
21635;DHT22;10979;48.306;9.830;2023-02-23T03:23:39;5.00;99.90
21635;DHT22;10979;48.306;9.830;2023-02-23T03:26:54;5.00;99.90
21635;DHT22;10979;48.306;9.830;2023-02-23T03:29:58;4.90;99.90
21635;DHT22;10979;48.306;9.830;2023-02-23T03:32:50;5.00;99.90
21635;DHT22;10979;48.306;9.830;2023-02-23T03:35:50;4.90;99.90
21635;DHT22;10979;48.306;9.830;2023-02-23T03:38:55;5.00;99.90
21635;DHT22;10979;48.306;9.830;2023-02-23T03:41:43;5.00;99.90
21635;DHT22;10979;48.306;9.830;2023-02-23T03:44:32;5.00;99.90
21635;DHT22;10979;48.306;9.830;2023-02-23T03:47:21;5.00;99.90
21635;DHT22;10979;48.306;9.830;2023-02-23T03:50:10;5.00;99.90
21635;DHT22;10979;48.306;9.830;2023-02-23T03:52:57;5.00;99.90
21635;DHT22;10979;48.306;9.830;2023-02-23T03:55:47;5.00;99.90
21635;DHT22;10979;48.306;9.830;2023-02-23T03:58:39;5.00;99.90
21635;DHT22;10979;48.306;9.830;2023-02-23T04:01:26;5.10;99.90
21635;DHT22;10979;48.306;9.830;2023-02-23T04:04:12;5.10;99.90
21635;DHT22;10979;48.306;9.830;2023-02-23T04:07:01;5.10;99.90
21635;DHT22;10979;48.306;9.830;2023-02-23T04:09:46;5.20;99.90
21635;DHT22;10979;48.306;9.830;2023-02-23T04:15:37;5.20;99.90
21635;DHT22;10979;48.306;9.830;2023-02-23T04:18:11;5.20;99.90
21635;DHT22;10979;48.306;9.830;2023-02-23T04:20:38;5.20;99.90
21635;DHT22;10979;48.306;9.830;2023-02-23T04:23:03;5.20;99.90
21635;DHT22;10979;48.306;9.830;2023-02-23T04:25:29;5.20;99.90
21635;DHT22;10979;48.306;9.830;2023-02-23T04:27:55;5.20;99.90
21635;DHT22;10979;48.306;9.830;2023-02-23T04:30:20;5.20;99.90
21635;DHT22;10979;48.306;9.830;2023-02-23T04:32:50;5.20;99.90
21635;DHT22;10979;48.306;9.830;2023-02-23T04:35:16;5.30;99.90
21635;DHT22;10979;48.306;9.830;2023-02-23T04:37:42;5.30;99.90
21635;DHT22;10979;48.306;9.830;2023-02-23T04:40:08;5.30;99.90
21635;DHT22;10979;48.306;9.830;2023-02-23T04:42:34;5.30;99.90
21635;DHT22;10979;48.306;9.830;2023-02-23T04:44:59;5.30;99.90
21635;DHT22;10979;48.306;9.830;2023-02-23T04:47:25;5.40;99.90
21635;DHT22;10979;48.306;9.830;2023-02-23T04:49:51;5.50;99.90
21635;DHT22;10979;48.306;9.830;2023-02-23T04:52:16;5.60;99.90
21635;DHT22;10979;48.306;9.830;2023-02-23T04:54:42;5.60;99.90
21635;DHT22;10979;48.306;9.830;2023-02-23T04:57:08;5.60;99.90
21635;DHT22;10979;48.306;9.830;2023-02-23T04:59:34;5.60;99.90
21635;DHT22;10979;48.306;9.830;2023-02-23T05:02:00;5.60;99.90
21635;DHT22;10979;48.306;9.830;2023-02-23T05:04:25;5.50;99.90
21635;DHT22;10979;48.306;9.830;2023-02-23T05:06:51;5.50;99.90
21635;DHT22;10979;48.306;9.830;2023-02-23T05:09:17;5.50;99.90
21635;DHT22;10979;48.306;9.830;2023-02-23T05:11:42;5.50;99.90
21635;DHT22;10979;48.306;9.830;2023-02-23T05:14:08;5.50;99.90
21635;DHT22;10979;48.306;9.830;2023-02-23T05:16:34;5.50;99.90
21635;DHT22;10979;48.306;9.830;2023-02-23T05:19:00;5.50;99.90
21635;DHT22;10979;48.306;9.830;2023-02-23T05:21:26;5.60;99.90
21635;DHT22;10979;48.306;9.830;2023-02-23T05:23:51;5.60;99.90
21635;DHT22;10979;48.306;9.830;2023-02-23T05:26:17;5.60;99.90
21635;DHT22;10979;48.306;9.830;2023-02-23T05:28:43;5.60;99.90
21635;DHT22;10979;48.306;9.830;2023-02-23T05:31:09;5.60;99.90
21635;DHT22;10979;48.306;9.830;2023-02-23T05:33:36;5.60;99.90
21635;DHT22;10979;48.306;9.830;2023-02-23T05:36:11;5.60;99.90
21635;DHT22;10979;48.306;9.830;2023-02-23T05:38:37;5.70;99.90
21635;DHT22;10979;48.306;9.830;2023-02-23T05:41:05;5.70;99.90
21635;DHT22;10979;48.306;9.830;2023-02-23T05:43:31;5.70;99.90
21635;DHT22;10979;48.306;9.830;2023-02-23T05:45:57;5.70;99.90
21635;DHT22;10979;48.306;9.830;2023-02-23T05:48:22;5.70;99.90
21635;DHT22;10979;48.306;9.830;2023-02-23T05:50:48;5.70;99.90
21635;DHT22;10979;48.306;9.830;2023-02-23T05:53:13;5.70;99.90
21635;DHT22;10979;48.306;9.830;2023-02-23T05:55:39;5.80;99.90
21635;DHT22;10979;48.306;9.830;2023-02-23T05:58:04;5.70;99.90
21635;DHT22;10979;48.306;9.830;2023-02-23T06:00:30;5.70;99.90
21635;DHT22;10979;48.306;9.830;2023-02-23T06:02:56;5.80;99.90
21635;DHT22;10979;48.306;9.830;2023-02-23T06:05:22;5.80;99.90
21635;DHT22;10979;48.306;9.830;2023-02-23T06:07:47;5.80;99.90
21635;DHT22;10979;48.306;9.830;2023-02-23T06:10:13;5.80;99.90
21635;DHT22;10979;48.306;9.830;2023-02-23T06:12:38;5.80;99.90
21635;DHT22;10979;48.306;9.830;2023-02-23T06:15:04;5.80;99.90
21635;DHT22;10979;48.306;9.830;2023-02-23T06:17:30;5.80;99.90
21635;DHT22;10979;48.306;9.830;2023-02-23T06:19:56;5.80;99.90
21635;DHT22;10979;48.306;9.830;2023-02-23T06:22:23;5.90;99.90
21635;DHT22;10979;48.306;9.830;2023-02-23T06:24:48;5.90;99.90
21635;DHT22;10979;48.306;9.830;2023-02-23T06:27:14;5.90;99.90
21635;DHT22;10979;48.306;9.830;2023-02-23T06:29:39;5.90;99.90
21635;DHT22;10979;48.306;9.830;2023-02-23T06:32:08;5.90;99.90
21635;DHT22;10979;48.306;9.830;2023-02-23T06:34:33;5.90;99.90
21635;DHT22;10979;48.306;9.830;2023-02-23T06:36:59;6.00;99.90
21635;DHT22;10979;48.306;9.830;2023-02-23T06:39:24;6.00;99.90
21635;DHT22;10979;48.306;9.830;2023-02-23T06:41:50;6.00;99.90
21635;DHT22;10979;48.306;9.830;2023-02-23T06:44:16;6.00;99.90
21635;DHT22;10979;48.306;9.830;2023-02-23T06:46:41;6.00;99.90
21635;DHT22;10979;48.306;9.830;2023-02-23T06:49:07;6.10;99.90
21635;DHT22;10979;48.306;9.830;2023-02-23T06:51:32;6.10;99.90
21635;DHT22;10979;48.306;9.830;2023-02-23T06:53:58;6.10;99.90
21635;DHT22;10979;48.306;9.830;2023-02-23T06:56:24;6.20;99.90
21635;DHT22;10979;48.306;9.830;2023-02-23T06:58:49;6.20;99.90
21635;DHT22;10979;48.306;9.830;2023-02-23T07:01:16;6.30;99.90
21635;DHT22;10979;48.306;9.830;2023-02-23T07:03:42;6.30;99.90
21635;DHT22;10979;48.306;9.830;2023-02-23T07:06:08;6.30;99.90
21635;DHT22;10979;48.306;9.830;2023-02-23T07:08:34;6.30;99.90
21635;DHT22;10979;48.306;9.830;2023-02-23T07:11:11;6.30;99.90
21635;DHT22;10979;48.306;9.830;2023-02-23T07:13:38;6.30;99.90
21635;DHT22;10979;48.306;9.830;2023-02-23T07:16:05;6.30;99.90
21635;DHT22;10979;48.306;9.830;2023-02-23T07:18:31;6.40;99.90
21635;DHT22;10979;48.306;9.830;2023-02-23T07:20:57;6.40;99.90
21635;DHT22;10979;48.306;9.830;2023-02-23T07:23:22;6.40;99.90
21635;DHT22;10979;48.306;9.830;2023-02-23T07:25:52;6.40;99.90
21635;DHT22;10979;48.306;9.830;2023-02-23T07:28:18;6.50;99.90
21635;DHT22;10979;48.306;9.830;2023-02-23T07:30:43;6.60;99.90
21635;DHT22;10979;48.306;9.830;2023-02-23T07:33:09;6.60;99.90
21635;DHT22;10979;48.306;9.830;2023-02-23T07:35:34;6.60;99.90
21635;DHT22;10979;48.306;9.830;2023-02-23T07:38:00;6.70;99.90
21635;DHT22;10979;48.306;9.830;2023-02-23T07:40:26;6.80;99.90
21635;DHT22;10979;48.306;9.830;2023-02-23T07:42:51;6.90;99.90
21635;DHT22;10979;48.306;9.830;2023-02-23T07:45:17;7.00;99.90
21635;DHT22;10979;48.306;9.830;2023-02-23T07:47:43;6.90;99.90
21635;DHT22;10979;48.306;9.830;2023-02-23T07:50:09;7.10;99.90
21635;DHT22;10979;48.306;9.830;2023-02-23T07:52:38;7.10;99.90
21635;DHT22;10979;48.306;9.830;2023-02-23T07:55:05;7.10;99.90
21635;DHT22;10979;48.306;9.830;2023-02-23T07:57:31;7.20;99.90
21635;DHT22;10979;48.306;9.830;2023-02-23T07:59:57;7.20;99.90
21635;DHT22;10979;48.306;9.830;2023-02-23T08:02:24;7.20;99.90
21635;DHT22;10979;48.306;9.830;2023-02-23T08:04:50;7.20;99.90
21635;DHT22;10979;48.306;9.830;2023-02-23T08:07:18;7.20;99.90
21635;DHT22;10979;48.306;9.830;2023-02-23T08:09:44;7.30;99.90
21635;DHT22;10979;48.306;9.830;2023-02-23T08:12:10;7.30;99.90
21635;DHT22;10979;48.306;9.830;2023-02-23T08:14:36;7.30;99.90
21635;DHT22;10979;48.306;9.830;2023-02-23T08:17:01;7.40;99.90
21635;DHT22;10979;48.306;9.830;2023-02-23T08:19:27;7.40;99.90
21635;DHT22;10979;48.306;9.830;2023-02-23T08:21:53;7.50;99.90
21635;DHT22;10979;48.306;9.830;2023-02-23T08:24:20;7.60;99.90
21635;DHT22;10979;48.306;9.830;2023-02-23T08:26:46;7.70;99.90
21635;DHT22;10979;48.306;9.830;2023-02-23T08:29:11;7.70;99.90
21635;DHT22;10979;48.306;9.830;2023-02-23T08:31:37;7.80;99.90
21635;DHT22;10979;48.306;9.830;2023-02-23T08:34:02;7.90;99.90
21635;DHT22;10979;48.306;9.830;2023-02-23T08:36:28;8.00;99.90
21635;DHT22;10979;48.306;9.830;2023-02-23T08:38:53;8.10;99.90
21635;DHT22;10979;48.306;9.830;2023-02-23T08:41:20;8.10;99.90
21635;DHT22;10979;48.306;9.830;2023-02-23T08:43:46;8.10;99.90
21635;DHT22;10979;48.306;9.830;2023-02-23T08:46:12;8.20;99.90
21635;DHT22;10979;48.306;9.830;2023-02-23T08:48:38;8.50;99.90
21635;DHT22;10979;48.306;9.830;2023-02-23T08:51:05;8.90;99.90
21635;DHT22;10979;48.306;9.830;2023-02-23T08:53:31;9.00;99.90
21635;DHT22;10979;48.306;9.830;2023-02-23T08:56:02;9.30;99.90
21635;DHT22;10979;48.306;9.830;2023-02-23T08:58:29;9.50;99.90
21635;DHT22;10979;48.306;9.830;2023-02-23T09:00:55;9.50;99.90
21635;DHT22;10979;48.306;9.830;2023-02-23T09:03:22;9.20;99.90
21635;DHT22;10979;48.306;9.830;2023-02-23T09:05:48;9.20;99.90
21635;DHT22;10979;48.306;9.830;2023-02-23T09:08:14;9.10;99.90
21635;DHT22;10979;48.306;9.830;2023-02-23T09:10:40;9.20;99.90
21635;DHT22;10979;48.306;9.830;2023-02-23T09:13:09;9.20;99.90
21635;DHT22;10979;48.306;9.830;2023-02-23T09:15:36;9.30;99.90
21635;DHT22;10979;48.306;9.830;2023-02-23T09:18:02;9.40;99.90
21635;DHT22;10979;48.306;9.830;2023-02-23T09:20:28;9.60;99.90
21635;DHT22;10979;48.306;9.830;2023-02-23T09:22:54;9.50;99.90
21635;DHT22;10979;48.306;9.830;2023-02-23T09:25:20;9.60;99.90
21635;DHT22;10979;48.306;9.830;2023-02-23T09:27:52;9.70;99.90
21635;DHT22;10979;48.306;9.830;2023-02-23T09:30:19;9.70;99.90
21635;DHT22;10979;48.306;9.830;2023-02-23T09:32:54;9.60;99.90
21635;DHT22;10979;48.306;9.830;2023-02-23T09:35:22;9.70;99.90
21635;DHT22;10979;48.306;9.830;2023-02-23T09:37:51;9.70;99.90
21635;DHT22;10979;48.306;9.830;2023-02-23T09:40:23;9.80;99.90
21635;DHT22;10979;48.306;9.830;2023-02-23T09:42:57;10.10;99.90
21635;DHT22;10979;48.306;9.830;2023-02-23T09:45:38;10.20;99.90
21635;DHT22;10979;48.306;9.830;2023-02-23T09:48:17;10.10;99.90
21635;DHT22;10979;48.306;9.830;2023-02-23T09:50:50;10.30;99.90
21635;DHT22;10979;48.306;9.830;2023-02-23T09:53:36;10.30;99.90
21635;DHT22;10979;48.306;9.830;2023-02-23T09:58:43;10.50;99.90
21635;DHT22;10979;48.306;9.830;2023-02-23T10:01:15;10.60;99.90
21635;DHT22;10979;48.306;9.830;2023-02-23T10:06:31;10.50;99.90
21635;DHT22;10979;48.306;9.830;2023-02-23T10:12:08;10.40;99.90
21635;DHT22;10979;48.306;9.830;2023-02-23T10:22:34;10.40;99.90
21635;DHT22;10979;48.306;9.830;2023-02-23T10:25:13;10.50;99.90
21635;DHT22;10979;48.306;9.830;2023-02-23T10:27:49;10.60;99.90
21635;DHT22;10979;48.306;9.830;2023-02-23T10:30:27;10.70;99.90
21635;DHT22;10979;48.306;9.830;2023-02-23T10:33:21;11.00;99.90
21635;DHT22;10979;48.306;9.830;2023-02-23T10:35:51;11.00;99.90
21635;DHT22;10979;48.306;9.830;2023-02-23T10:38:19;11.20;99.90
21635;DHT22;10979;48.306;9.830;2023-02-23T10:40:49;11.30;99.90
21635;DHT22;10979;48.306;9.830;2023-02-23T10:43:15;11.40;99.90
21635;DHT22;10979;48.306;9.830;2023-02-23T10:45:47;11.40;99.90
21635;DHT22;10979;48.306;9.830;2023-02-23T10:48:23;11.60;99.90
21635;DHT22;10979;48.306;9.830;2023-02-23T10:50:53;11.60;99.90
21635;DHT22;10979;48.306;9.830;2023-02-23T10:53:24;11.60;99.90
21635;DHT22;10979;48.306;9.830;2023-02-23T10:56:06;11.80;99.90
21635;DHT22;10979;48.306;9.830;2023-02-23T10:58:42;11.50;99.90
21635;DHT22;10979;48.306;9.830;2023-02-23T11:01:11;12.10;99.90
21635;DHT22;10979;48.306;9.830;2023-02-23T11:03:47;11.90;99.90
21635;DHT22;10979;48.306;9.830;2023-02-23T11:06:33;11.90;99.90
21635;DHT22;10979;48.306;9.830;2023-02-23T11:09:17;12.30;99.90
21635;DHT22;10979;48.306;9.830;2023-02-23T11:12:00;12.30;99.90
21635;DHT22;10979;48.306;9.830;2023-02-23T11:14:28;12.40;99.90
21635;DHT22;10979;48.306;9.830;2023-02-23T11:16:59;12.40;99.90
21635;DHT22;10979;48.306;9.830;2023-02-23T11:19:37;12.60;99.90
21635;DHT22;10979;48.306;9.830;2023-02-23T11:22:06;12.60;99.90
21635;DHT22;10979;48.306;9.830;2023-02-23T11:24:36;12.50;99.90
21635;DHT22;10979;48.306;9.830;2023-02-23T11:27:05;12.50;99.90
21635;DHT22;10979;48.306;9.830;2023-02-23T11:29:39;12.30;99.90
21635;DHT22;10979;48.306;9.830;2023-02-23T11:32:14;12.20;99.90
21635;DHT22;10979;48.306;9.830;2023-02-23T11:34:40;12.40;99.90
21635;DHT22;10979;48.306;9.830;2023-02-23T11:39:56;12.50;99.90
21635;DHT22;10979;48.306;9.830;2023-02-23T11:42:30;12.60;99.90
21635;DHT22;10979;48.306;9.830;2023-02-23T11:45:14;12.50;99.90
21635;DHT22;10979;48.306;9.830;2023-02-23T11:47:44;12.50;99.90
21635;DHT22;10979;48.306;9.830;2023-02-23T11:50:36;12.90;99.90
21635;DHT22;10979;48.306;9.830;2023-02-23T11:53:12;12.90;99.90
21635;DHT22;10979;48.306;9.830;2023-02-23T11:55:39;13.20;99.90
21635;DHT22;10979;48.306;9.830;2023-02-23T11:58:24;13.40;99.90
21635;DHT22;10979;48.306;9.830;2023-02-23T12:01:05;13.60;99.90
21635;DHT22;10979;48.306;9.830;2023-02-23T12:03:37;13.50;99.90
21635;DHT22;10979;48.306;9.830;2023-02-23T12:06:09;13.60;99.90
21635;DHT22;10979;48.306;9.830;2023-02-23T12:08:48;13.70;99.90
21635;DHT22;10979;48.306;9.830;2023-02-23T12:11:25;12.90;99.90
21635;DHT22;10979;48.306;9.830;2023-02-23T12:14:23;13.00;99.90
21635;DHT22;10979;48.306;9.830;2023-02-23T12:16:54;13.20;99.90
21635;DHT22;10979;48.306;9.830;2023-02-23T12:19:29;13.40;99.90
21635;DHT22;10979;48.306;9.830;2023-02-23T12:22:15;13.30;99.90
21635;DHT22;10979;48.306;9.830;2023-02-23T12:24:58;13.80;99.90
21635;DHT22;10979;48.306;9.830;2023-02-23T12:30:16;13.60;99.90
21635;DHT22;10979;48.306;9.830;2023-02-23T12:33:00;13.80;99.90
21635;DHT22;10979;48.306;9.830;2023-02-23T12:35:44;14.40;99.90
21635;DHT22;10979;48.306;9.830;2023-02-23T12:41:11;14.70;99.90
21635;DHT22;10979;48.306;9.830;2023-02-23T12:43:51;14.50;99.90
21635;DHT22;10979;48.306;9.830;2023-02-23T12:46:29;14.10;99.90
21635;DHT22;10979;48.306;9.830;2023-02-23T12:51:37;14.40;99.90
21635;DHT22;10979;48.306;9.830;2023-02-23T12:54:03;14.10;99.90
21635;DHT22;10979;48.306;9.830;2023-02-23T12:57:21;14.40;99.90
21635;DHT22;10979;48.306;9.830;2023-02-23T13:00:14;14.30;99.90
21635;DHT22;10979;48.306;9.830;2023-02-23T13:03:12;14.30;99.90
21635;DHT22;10979;48.306;9.830;2023-02-23T13:05:50;13.70;99.90
21635;DHT22;10979;48.306;9.830;2023-02-23T13:11:15;14.20;99.90
21635;DHT22;10979;48.306;9.830;2023-02-23T13:16:54;13.80;99.90
21635;DHT22;10979;48.306;9.830;2023-02-23T13:28:20;13.90;99.90
21635;DHT22;10979;48.306;9.830;2023-02-23T13:30:48;13.80;99.90
21635;DHT22;10979;48.306;9.830;2023-02-23T13:33:28;13.70;99.90
21635;DHT22;10979;48.306;9.830;2023-02-23T13:36:01;13.50;99.90
21635;DHT22;10979;48.306;9.830;2023-02-23T13:38:30;13.80;99.90
21635;DHT22;10979;48.306;9.830;2023-02-23T13:41:23;13.90;99.90
21635;DHT22;10979;48.306;9.830;2023-02-23T13:43:58;14.00;99.90
21635;DHT22;10979;48.306;9.830;2023-02-23T13:46:48;14.20;99.90
21635;DHT22;10979;48.306;9.830;2023-02-23T13:49:44;14.50;99.90
21635;DHT22;10979;48.306;9.830;2023-02-23T13:54:59;14.30;99.90
21635;DHT22;10979;48.306;9.830;2023-02-23T13:57:31;14.30;99.90
21635;DHT22;10979;48.306;9.830;2023-02-23T13:59:58;14.50;99.90
21635;DHT22;10979;48.306;9.830;2023-02-23T14:02:36;14.70;99.90
21635;DHT22;10979;48.306;9.830;2023-02-23T14:07:38;14.80;99.90
21635;DHT22;10979;48.306;9.830;2023-02-23T14:10:18;14.60;99.90
21635;DHT22;10979;48.306;9.830;2023-02-23T14:20:53;14.00;99.90
21635;DHT22;10979;48.306;9.830;2023-02-23T14:31:02;13.40;99.90
21635;DHT22;10979;48.306;9.830;2023-02-23T14:33:56;13.60;99.90
21635;DHT22;10979;48.306;9.830;2023-02-23T14:38:49;13.60;99.90
21635;DHT22;10979;48.306;9.830;2023-02-23T14:44:29;13.20;99.90
21635;DHT22;10979;48.306;9.830;2023-02-23T14:47:16;13.00;99.90
21635;DHT22;10979;48.306;9.830;2023-02-23T14:49:46;12.10;99.90
21635;DHT22;10979;48.306;9.830;2023-02-23T14:54:45;11.80;99.90
21635;DHT22;10979;48.306;9.830;2023-02-23T14:57:22;11.70;99.90
21635;DHT22;10979;48.306;9.830;2023-02-23T15:02:23;11.40;99.90
21635;DHT22;10979;48.306;9.830;2023-02-23T15:04:49;11.30;99.90
21635;DHT22;10979;48.306;9.830;2023-02-23T15:09:52;10.90;99.90
21635;DHT22;10979;48.306;9.830;2023-02-23T15:12:35;10.90;99.90
21635;DHT22;10979;48.306;9.830;2023-02-23T15:15:04;10.70;99.90
21635;DHT22;10979;48.306;9.830;2023-02-23T15:17:32;10.50;99.90
21635;DHT22;10979;48.306;9.830;2023-02-23T15:20:02;10.40;99.90
21635;DHT22;10979;48.306;9.830;2023-02-23T15:22:36;10.30;99.90
21635;DHT22;10979;48.306;9.830;2023-02-23T15:25:18;10.30;99.90
21635;DHT22;10979;48.306;9.830;2023-02-23T15:27:46;10.20;99.90
21635;DHT22;10979;48.306;9.830;2023-02-23T15:30:25;10.10;99.90
21635;DHT22;10979;48.306;9.830;2023-02-23T15:33:11;10.00;99.90
21635;DHT22;10979;48.306;9.830;2023-02-23T15:38:25;9.80;99.90
21635;DHT22;10979;48.306;9.830;2023-02-23T15:40:57;9.80;99.90
21635;DHT22;10979;48.306;9.830;2023-02-23T15:43:24;9.70;99.90
21635;DHT22;10979;48.306;9.830;2023-02-23T15:45:52;9.60;99.90
21635;DHT22;10979;48.306;9.830;2023-02-23T15:48:22;9.70;99.90
21635;DHT22;10979;48.306;9.830;2023-02-23T15:50:55;9.30;99.90
21635;DHT22;10979;48.306;9.830;2023-02-23T15:53:35;9.10;99.90
21635;DHT22;10979;48.306;9.830;2023-02-23T15:56:10;9.10;99.90
21635;DHT22;10979;48.306;9.830;2023-02-23T15:58:40;9.10;99.90
21635;DHT22;10979;48.306;9.830;2023-02-23T16:01:11;8.90;99.90
21635;DHT22;10979;48.306;9.830;2023-02-23T16:03:53;8.70;99.90
21635;DHT22;10979;48.306;9.830;2023-02-23T16:06:23;8.70;99.90
21635;DHT22;10979;48.306;9.830;2023-02-23T16:09:12;8.50;99.90
21635;DHT22;10979;48.306;9.830;2023-02-23T16:14:17;8.50;99.90
21635;DHT22;10979;48.306;9.830;2023-02-23T16:16:45;8.60;99.90
21635;DHT22;10979;48.306;9.830;2023-02-23T16:19:16;8.60;99.90
21635;DHT22;10979;48.306;9.830;2023-02-23T16:21:47;8.50;99.90
21635;DHT22;10979;48.306;9.830;2023-02-23T16:24:19;8.60;99.90
21635;DHT22;10979;48.306;9.830;2023-02-23T16:26:51;8.60;99.90
21635;DHT22;10979;48.306;9.830;2023-02-23T16:29:37;8.70;99.90
21635;DHT22;10979;48.306;9.830;2023-02-23T16:32:16;8.60;99.90
21635;DHT22;10979;48.306;9.830;2023-02-23T16:34:59;8.50;99.90
21635;DHT22;10979;48.306;9.830;2023-02-23T16:37:25;8.50;99.90
21635;DHT22;10979;48.306;9.830;2023-02-23T16:39:53;8.40;99.90
21635;DHT22;10979;48.306;9.830;2023-02-23T16:42:31;8.40;99.90
21635;DHT22;10979;48.306;9.830;2023-02-23T16:44:57;8.40;99.90
21635;DHT22;10979;48.306;9.830;2023-02-23T16:49:50;8.20;99.90
21635;DHT22;10979;48.306;9.830;2023-02-23T16:52:20;8.10;99.90
21635;DHT22;10979;48.306;9.830;2023-02-23T16:54:50;8.10;99.90
21635;DHT22;10979;48.306;9.830;2023-02-23T16:57:31;7.90;99.90
21635;DHT22;10979;48.306;9.830;2023-02-23T16:59:59;7.90;99.90
21635;DHT22;10979;48.306;9.830;2023-02-23T17:02:25;7.90;99.90
21635;DHT22;10979;48.306;9.830;2023-02-23T17:04:51;7.80;99.90
21635;DHT22;10979;48.306;9.830;2023-02-23T17:07:19;7.70;99.90
21635;DHT22;10979;48.306;9.830;2023-02-23T17:09:44;7.80;99.90
21635;DHT22;10979;48.306;9.830;2023-02-23T17:12:12;7.60;99.90
21635;DHT22;10979;48.306;9.830;2023-02-23T17:14:38;7.60;99.90
21635;DHT22;10979;48.306;9.830;2023-02-23T17:17:04;7.70;99.90
21635;DHT22;10979;48.306;9.830;2023-02-23T17:19:29;7.70;99.90
21635;DHT22;10979;48.306;9.830;2023-02-23T17:21:55;7.70;99.90
21635;DHT22;10979;48.306;9.830;2023-02-23T17:24:22;7.70;99.90
21635;DHT22;10979;48.306;9.830;2023-02-23T17:26:51;7.60;99.90
21635;DHT22;10979;48.306;9.830;2023-02-23T17:29:17;7.70;99.90
21635;DHT22;10979;48.306;9.830;2023-02-23T17:31:43;7.70;99.90
21635;DHT22;10979;48.306;9.830;2023-02-23T17:34:10;7.60;99.90
21635;DHT22;10979;48.306;9.830;2023-02-23T17:36:36;7.60;99.90
21635;DHT22;10979;48.306;9.830;2023-02-23T17:39:01;7.60;99.90
21635;DHT22;10979;48.306;9.830;2023-02-23T17:41:27;7.60;99.90
21635;DHT22;10979;48.306;9.830;2023-02-23T17:43:53;7.60;99.90
21635;DHT22;10979;48.306;9.830;2023-02-23T17:46:18;7.60;99.90
21635;DHT22;10979;48.306;9.830;2023-02-23T17:48:44;7.60;99.90
21635;DHT22;10979;48.306;9.830;2023-02-23T17:51:12;7.60;99.90
21635;DHT22;10979;48.306;9.830;2023-02-23T17:53:41;7.60;99.90
21635;DHT22;10979;48.306;9.830;2023-02-23T17:56:08;7.70;99.90
21635;DHT22;10979;48.306;9.830;2023-02-23T17:58:34;7.70;99.90
21635;DHT22;10979;48.306;9.830;2023-02-23T18:01:02;7.70;99.90
21635;DHT22;10979;48.306;9.830;2023-02-23T18:03:30;7.70;99.90
21635;DHT22;10979;48.306;9.830;2023-02-23T18:06:08;7.70;99.90
21635;DHT22;10979;48.306;9.830;2023-02-23T18:08:35;7.70;99.90
21635;DHT22;10979;48.306;9.830;2023-02-23T18:11:00;7.80;99.90